createdAt,value
2019-03-04T00:01:53.276Z,6.07
2019-03-04T00:04:26.463Z,2.63
2019-03-04T00:06:57.654Z,1.93
2019-03-04T00:09:31.185Z,2.40
2019-03-04T00:12:02.406Z,2.17
2019-03-04T00:14:36.164Z,2.57
2019-03-04T00:17:08.585Z,1.70
2019-03-04T00:19:41.356Z,3.67
2019-03-04T00:22:15.526Z,1.73
2019-03-04T00:24:48.486Z,1.53
2019-03-04T00:27:21.368Z,2.07
2019-03-04T00:29:54.401Z,1.83
2019-03-04T00:32:26.521Z,1.67
2019-03-04T00:34:59.503Z,2.60
2019-03-04T00:37:31.558Z,2.60
2019-03-04T00:40:09.991Z,1.80
2019-03-04T00:42:41.437Z,2.57
2019-03-04T00:45:14.548Z,9.63
2019-03-04T00:47:47.438Z,3.80
2019-03-04T00:50:20.548Z,7.80
2019-03-04T00:52:53.502Z,4.10
2019-03-04T00:55:27.401Z,2.40
2019-03-04T00:57:59.561Z,1.83
2019-03-04T01:00:31.946Z,3.60
2019-03-04T01:03:06.354Z,5.13
2019-03-04T01:05:38.663Z,4.63
2019-03-04T01:08:13.299Z,2.40
2019-03-04T01:10:44.674Z,3.23
2019-03-04T01:13:17.855Z,4.37
2019-03-04T01:15:52.439Z,5.00
2019-03-04T01:18:25.423Z,2.20
2019-03-04T01:20:59.258Z,4.13
2019-03-04T01:27:10.510Z,3.30
2019-03-04T01:29:41.934Z,4.30
2019-03-04T01:32:15.841Z,2.10
2019-03-04T01:34:49.967Z,2.93
2019-03-04T01:37:22.395Z,1.30
2019-03-04T01:39:54.970Z,4.70
2019-03-04T01:42:27.577Z,1.83
2019-03-04T01:45:01.578Z,1.30
2019-03-04T01:47:32.798Z,1.43
2019-03-04T01:50:09.158Z,3.07
2019-03-04T01:52:41.687Z,2.60
2019-03-04T01:55:15.731Z,4.93
2019-03-04T01:57:47.909Z,3.70
2019-03-04T02:00:21.624Z,4.30
2019-03-04T02:02:55.470Z,1.90
2019-03-04T02:05:27.455Z,2.00
2019-03-04T02:08:01.501Z,2.20
2019-03-04T02:10:33.881Z,1.70
2019-03-04T02:13:05.979Z,1.50
2019-03-04T02:15:38.929Z,0.97
2019-03-04T02:18:11.957Z,1.13
2019-03-04T02:20:45.322Z,1.50
2019-03-04T02:23:18.838Z,3.07
2019-03-04T02:26:11.991Z,2.93
2019-03-04T02:28:43.973Z,2.13
2019-03-04T02:31:17.961Z,4.03
2019-03-04T02:33:51.094Z,4.00
2019-03-04T02:36:24.068Z,1.77
2019-03-04T02:38:57.074Z,3.17
2019-03-04T02:41:30.250Z,5.23
2019-03-04T02:44:03.039Z,4.33
2019-03-04T02:46:37.851Z,1.83
2019-03-04T02:49:13.995Z,1.80
2019-03-04T02:51:48.263Z,5.40
2019-03-04T02:54:23.325Z,3.50
2019-03-04T02:56:57.023Z,6.10
2019-03-04T02:59:30.077Z,2.50
2019-03-04T03:02:04.750Z,1.83
2019-03-04T03:04:37.268Z,1.37
2019-03-04T03:07:10.505Z,2.07
2019-03-04T03:09:41.747Z,7.93
2019-03-04T03:12:15.141Z,2.00
2019-03-04T03:14:48.192Z,3.17
2019-03-04T03:17:21.447Z,3.50
2019-03-04T03:19:54.319Z,4.00
2019-03-04T03:22:27.231Z,8.57
2019-03-04T03:25:00.450Z,4.23
2019-03-04T03:27:33.293Z,4.53
2019-03-04T03:30:08.375Z,7.10
2019-03-04T03:32:40.587Z,8.27
2019-03-04T03:35:12.531Z,7.27
2019-03-04T03:37:45.258Z,4.53
2019-03-04T03:40:18.563Z,7.70
2019-03-04T03:42:51.368Z,5.13
2019-03-04T03:45:24.310Z,6.57
2019-03-04T03:47:57.369Z,11.23
2019-03-04T03:50:30.552Z,7.27
2019-03-04T03:53:01.736Z,17.70
2019-03-04T03:55:35.551Z,16.60
2019-03-04T03:58:09.482Z,19.67
2019-03-04T04:00:41.736Z,13.50
2019-03-04T04:03:13.967Z,8.97
2019-03-04T04:05:45.382Z,7.03
2019-03-04T04:08:18.499Z,7.33
2019-03-04T04:10:51.523Z,6.13
2019-03-04T04:13:23.547Z,4.60
2019-03-04T04:15:58.032Z,9.30
2019-03-04T04:18:29.622Z,2.60
2019-03-04T04:21:03.220Z,10.87
2019-03-04T04:23:35.597Z,9.80
2019-03-04T04:26:22.015Z,22.30
2019-03-04T04:29:13.442Z,21.90
2019-03-04T04:31:45.679Z,35.53
2019-03-04T04:34:23.175Z,17.60
2019-03-04T04:36:57.735Z,9.10
2019-03-04T04:39:29.724Z,15.27
2019-03-04T04:42:04.615Z,5.33
2019-03-04T04:44:36.799Z,8.30
2019-03-04T04:47:10.245Z,8.87
2019-03-04T04:49:41.974Z,11.10
2019-03-04T04:52:14.674Z,4.53
2019-03-04T04:54:50.544Z,7.00
2019-03-04T04:57:24.621Z,9.30
2019-03-04T04:59:57.696Z,99.73
2019-03-04T05:02:30.728Z,42.73
2019-03-04T05:05:03.811Z,25.20
2019-03-04T05:07:36.721Z,15.67
2019-03-04T05:10:12.339Z,15.57
2019-03-04T05:12:44.958Z,13.83
2019-03-04T05:15:18.470Z,9.03
2019-03-04T05:17:50.846Z,9.53
2019-03-04T05:20:23.776Z,3.57
2019-03-04T05:22:56.806Z,4.97
2019-03-04T05:25:29.798Z,18.53
2019-03-04T05:28:04.606Z,20.63
2019-03-04T05:30:35.776Z,5.23
2019-03-04T05:33:09.569Z,7.53
2019-03-04T05:35:41.737Z,4.87
2019-03-04T05:38:14.948Z,10.83
2019-03-04T05:40:49.196Z,5.97
2019-03-04T05:43:21.955Z,5.43
2019-03-04T05:45:55.715Z,7.77
2019-03-04T05:48:26.939Z,7.20
2019-03-04T05:50:59.909Z,6.67
2019-03-04T05:53:33.780Z,4.07
2019-03-04T05:56:07.650Z,6.50
2019-03-04T05:58:41.466Z,11.57
2019-03-04T06:01:23.802Z,9.60
2019-03-04T06:04:00.385Z,4.90
2019-03-04T06:07:01.417Z,5.60
2019-03-04T06:09:32.996Z,11.80
2019-03-04T06:12:07.045Z,12.63
2019-03-04T06:14:39.521Z,11.67
2019-03-04T06:17:12.261Z,8.43
2019-03-04T06:19:45.093Z,11.37
2019-03-04T06:22:18.076Z,5.47
2019-03-04T06:24:51.470Z,4.20
2019-03-04T06:27:24.251Z,8.33
2019-03-04T06:29:57.134Z,12.90
2019-03-04T06:32:30.029Z,3.73
2019-03-04T06:35:04.770Z,12.50
2019-03-04T06:37:36.121Z,9.57
2019-03-04T06:40:10.836Z,6.40
2019-03-04T06:42:42.421Z,5.90
2019-03-04T06:45:15.926Z,6.93
2019-03-04T06:47:48.139Z,8.17
2019-03-04T06:50:49.216Z,9.80
2019-03-04T06:53:29.906Z,10.03
2019-03-04T06:56:12.994Z,11.63
2019-03-04T06:58:48.263Z,12.50
2019-03-04T07:01:26.549Z,23.80
2019-03-04T07:04:13.172Z,11.30
2019-03-04T07:06:45.405Z,35.37
2019-03-04T07:09:20.646Z,58.83
2019-03-04T07:11:54.842Z,64.70
2019-03-04T07:14:27.394Z,43.40
2019-03-04T07:17:03.243Z,20.97
2019-03-04T07:19:38.087Z,12.87
2019-03-04T07:22:11.700Z,6.57
2019-03-04T07:24:44.475Z,11.67
2019-03-04T07:27:15.668Z,11.33
2019-03-04T07:29:48.396Z,15.60
2019-03-04T07:32:21.671Z,12.13
2019-03-04T07:34:56.507Z,7.70
2019-03-04T07:37:29.650Z,8.00
2019-03-04T07:40:03.732Z,16.70
2019-03-04T07:42:38.219Z,7.47
2019-03-04T07:45:14.304Z,10.13
2019-03-04T07:47:46.864Z,8.70
2019-03-04T07:50:18.469Z,4.53
2019-03-04T07:52:57.944Z,4.87
2019-03-04T07:55:31.255Z,3.80
2019-03-04T07:58:03.482Z,6.17
2019-03-04T08:00:36.485Z,10.63
2019-03-04T08:03:09.754Z,5.83
2019-03-04T08:05:43.771Z,9.40
2019-03-04T08:08:15.488Z,17.80
2019-03-04T08:11:40.704Z,8.83
2019-03-04T08:14:13.604Z,14.00
2019-03-04T08:16:47.729Z,9.47
2019-03-04T08:19:22.110Z,8.87
2019-03-04T08:21:55.061Z,6.37
2019-03-04T08:24:29.175Z,7.40
2019-03-04T08:27:00.677Z,8.00
2019-03-04T08:29:33.660Z,14.57
2019-03-04T08:32:06.867Z,11.07
2019-03-04T08:34:39.830Z,5.60
2019-03-04T08:37:12.839Z,10.03
2019-03-04T08:39:45.789Z,9.93
2019-03-04T08:42:18.596Z,14.87
2019-03-04T08:44:51.791Z,9.50
2019-03-04T08:47:24.760Z,9.27
2019-03-04T08:49:57.778Z,13.77
2019-03-04T08:52:31.854Z,22.07
2019-03-04T08:55:04.495Z,11.57
2019-03-04T08:57:35.703Z,6.60
2019-03-04T09:00:13.727Z,4.67
2019-03-04T09:02:45.903Z,7.57
2019-03-04T09:05:21.193Z,5.10
2019-03-04T09:07:54.865Z,6.77
2019-03-04T09:10:29.438Z,4.13
2019-03-04T09:13:02.906Z,8.63
2019-03-04T09:15:35.899Z,10.40
2019-03-04T09:18:13.047Z,2.30
2019-03-04T09:20:46.157Z,2.97
2019-03-04T09:23:19.979Z,2.33
2019-03-04T09:26:00.385Z,4.83
2019-03-04T09:28:33.941Z,5.10
2019-03-04T09:31:06.932Z,3.60
2019-03-04T09:33:39.956Z,2.60
2019-03-04T09:36:12.948Z,7.10
2019-03-04T09:38:46.038Z,6.13
2019-03-04T09:41:19.452Z,4.77
2019-03-04T09:43:53.116Z,4.70
2019-03-04T09:46:25.256Z,4.17
2019-03-04T09:48:58.169Z,6.23
2019-03-04T09:51:29.976Z,3.63
2019-03-04T09:54:04.185Z,2.17
2019-03-04T09:56:37.654Z,2.00
2019-03-04T09:59:09.305Z,3.93
2019-03-04T10:01:48.961Z,2.30
2019-03-04T10:04:56.066Z,6.83
2019-03-04T10:07:53.604Z,3.53
2019-03-04T10:11:07.974Z,3.80
2019-03-04T10:14:15.458Z,1.90
2019-03-04T10:17:34.651Z,4.53
2019-03-04T10:20:59.878Z,1.90
2019-03-04T10:24:03.523Z,1.10
2019-03-04T10:27:32.036Z,1.37
2019-03-04T10:30:28.739Z,2.93
2019-03-04T10:33:45.534Z,3.33
2019-03-04T10:36:56.840Z,4.93
2019-03-04T10:39:44.363Z,0.90
2019-03-04T10:43:09.555Z,1.73
2019-03-04T10:46:16.801Z,2.03
2019-03-04T10:48:49.092Z,3.10
2019-03-04T10:51:22.088Z,1.70
2019-03-04T10:53:54.210Z,2.27
2019-03-04T10:56:27.326Z,2.63
2019-03-04T10:58:59.573Z,3.10
2019-03-04T11:01:33.758Z,1.40
2019-03-04T11:04:06.375Z,17.07
2019-03-04T11:06:39.474Z,6.70
2019-03-04T11:09:12.273Z,9.70
2019-03-04T11:11:45.469Z,3.03
2019-03-04T11:14:18.970Z,2.10
2019-03-04T11:16:51.979Z,2.80
2019-03-04T11:19:25.727Z,3.47
2019-03-04T11:21:59.470Z,2.60
2019-03-04T11:24:31.643Z,1.30
2019-03-04T11:27:03.969Z,2.10
2019-03-04T11:29:36.645Z,1.37
2019-03-04T11:32:09.106Z,4.10
2019-03-04T11:34:42.797Z,2.00
2019-03-04T11:37:15.577Z,1.40
2019-03-04T11:39:59.317Z,1.30
2019-03-04T11:42:30.745Z,1.53
2019-03-04T11:45:03.703Z,3.70
2019-03-04T11:47:34.906Z,1.27
2019-03-04T11:50:09.837Z,2.13
2019-03-04T11:52:42.686Z,1.27
2019-03-04T11:55:15.791Z,1.50
2019-03-04T11:57:48.883Z,1.70
2019-03-04T12:00:39.865Z,2.60
2019-03-04T12:03:12.627Z,5.30
2019-03-04T12:05:45.608Z,2.67
2019-03-04T12:08:18.728Z,1.67
2019-03-04T12:10:52.099Z,1.43
2019-03-04T12:13:24.675Z,1.53
2019-03-04T12:15:57.736Z,2.07
2019-03-04T12:18:30.553Z,1.83
2019-03-04T12:21:01.857Z,1.70
2019-03-04T12:23:35.686Z,1.37
2019-03-04T12:26:09.640Z,3.17
2019-03-04T12:28:42.508Z,2.83
2019-03-04T12:31:15.820Z,1.20
2019-03-04T12:33:49.157Z,2.60
2019-03-04T12:36:21.777Z,1.87
2019-03-04T12:38:54.821Z,1.47
2019-03-04T12:41:28.022Z,0.90
2019-03-04T12:44:01.203Z,2.87
2019-03-04T12:46:32.686Z,1.50
2019-03-04T12:49:03.915Z,3.83
2019-03-04T12:51:36.940Z,1.90
2019-03-04T12:54:10.088Z,1.83
2019-03-04T12:56:42.650Z,1.20
2019-03-04T12:59:15.983Z,1.50
2019-03-04T13:01:50.585Z,1.60
2019-03-04T13:04:22.728Z,1.70
2019-03-04T13:06:56.720Z,2.90
2019-03-04T13:09:27.918Z,2.50
2019-03-04T13:11:59.123Z,2.23
2019-03-04T13:14:34.179Z,2.10
2019-03-04T13:17:06.401Z,1.87
2019-03-04T13:19:40.070Z,5.70
2019-03-04T13:22:14.074Z,3.57
2019-03-04T13:24:46.054Z,1.67
2019-03-04T13:27:23.744Z,3.73
2019-03-04T13:29:52.041Z,1.40
2019-03-04T13:32:25.037Z,1.20
2019-03-04T13:34:58.067Z,1.40
2019-03-04T13:37:31.194Z,1.67
2019-03-04T13:40:04.578Z,1.23
2019-03-04T13:42:37.149Z,1.43
2019-03-04T13:45:12.729Z,1.40
2019-03-04T13:47:46.128Z,1.73
2019-03-04T13:50:20.623Z,1.30
2019-03-04T13:52:52.153Z,3.40
2019-03-04T13:55:26.183Z,4.40
2019-03-04T13:57:58.636Z,7.23
2019-03-04T14:00:32.418Z,4.50
2019-03-04T14:03:05.912Z,1.80
2019-03-04T14:05:40.162Z,10.90
2019-03-04T14:08:13.527Z,5.20
2019-03-04T14:10:46.413Z,3.37
2019-03-04T14:13:18.876Z,7.07
2019-03-04T14:15:53.021Z,13.50
2019-03-04T14:18:25.295Z,3.10
2019-03-04T14:20:58.299Z,21.73
2019-03-04T14:23:31.261Z,7.93
2019-03-04T14:26:05.455Z,6.80
2019-03-04T14:28:38.477Z,9.60
2019-03-04T14:34:26.264Z,10.23
2019-03-04T14:36:57.794Z,4.73
2019-03-04T14:39:33.135Z,5.10
2019-03-04T14:42:09.185Z,18.87
2019-03-04T14:44:41.388Z,10.40
2019-03-04T14:47:15.352Z,5.67
2019-03-04T14:49:49.436Z,9.13
2019-03-04T14:52:23.992Z,7.50
2019-03-04T14:54:57.433Z,5.97
2019-03-04T14:57:31.592Z,7.73
2019-03-04T15:00:10.370Z,7.67
2019-03-04T15:02:45.214Z,4.40
2019-03-04T15:05:21.713Z,19.77
2019-03-04T15:07:56.889Z,9.17
2019-03-04T15:10:29.408Z,4.67
2019-03-04T15:13:03.165Z,4.13
2019-03-04T15:15:37.086Z,19.13
2019-03-04T15:18:11.529Z,3.73
2019-03-04T15:20:42.810Z,5.60
2019-03-04T15:23:28.541Z,12.30
2019-03-04T15:26:01.678Z,11.33
2019-03-04T15:28:34.650Z,9.03
2019-03-04T15:31:07.664Z,15.20
2019-03-04T15:33:41.571Z,19.23
2019-03-04T15:36:13.632Z,2.53
2019-03-04T15:38:46.832Z,8.80
2019-03-04T15:41:21.132Z,9.67
2019-03-04T15:43:52.746Z,8.77
2019-03-04T15:46:25.659Z,10.37
2019-03-04T15:48:56.868Z,2.53
2019-03-04T15:51:28.675Z,12.23
2019-03-04T15:54:00.070Z,6.30
2019-03-04T15:56:35.504Z,2.13
2019-03-04T15:59:07.974Z,11.83
2019-03-04T16:01:41.152Z,11.10
2019-03-04T16:04:23.000Z,4.33
2019-03-04T16:06:55.910Z,2.60
2019-03-04T16:09:27.182Z,2.40
2019-03-04T16:11:58.772Z,4.83
2019-03-04T16:14:33.034Z,4.97
2019-03-04T16:17:06.009Z,3.67
2019-03-04T16:19:39.961Z,10.33
2019-03-04T16:22:11.174Z,18.00
2019-03-04T16:24:43.466Z,2.47
2019-03-04T16:27:15.977Z,2.60
2019-03-04T16:29:47.893Z,1.37
2019-03-04T16:32:21.645Z,1.60
2019-03-04T16:34:55.824Z,2.50
2019-03-04T16:37:29.537Z,1.73
2019-03-04T16:40:00.828Z,1.43
2019-03-04T16:42:34.696Z,0.90
2019-03-04T16:48:32.354Z,3.23
2019-03-04T16:51:03.915Z,1.07
2019-03-04T16:53:39.555Z,1.50
2019-03-04T16:56:13.035Z,2.20
2019-03-04T16:58:46.029Z,3.50
2019-03-04T17:01:17.477Z,1.47
2019-03-04T17:03:48.926Z,1.93
2019-03-04T17:06:22.158Z,1.73
2019-03-04T17:08:54.938Z,2.10
2019-03-04T17:11:26.120Z,3.80
2019-03-04T17:13:58.060Z,2.03
2019-03-04T17:16:30.072Z,3.57
2019-03-04T17:19:04.217Z,2.17
2019-03-04T17:21:37.228Z,1.40
2019-03-04T17:24:10.196Z,2.13
2019-03-04T17:26:42.195Z,3.00
2019-03-04T17:29:16.168Z,2.97
2019-03-04T17:31:49.081Z,6.50
2019-03-04T17:34:58.498Z,3.40
2019-03-04T17:37:31.323Z,3.53
2019-03-04T17:40:04.139Z,5.33
2019-03-04T17:42:36.241Z,9.60
2019-03-04T17:45:12.318Z,10.17
2019-03-04T17:47:43.509Z,1.33
2019-03-04T17:50:18.409Z,2.87
2019-03-04T17:52:53.865Z,4.90
2019-03-04T17:58:50.165Z,4.60
2019-03-04T18:01:21.365Z,1.53
2019-03-04T18:03:55.299Z,6.33
2019-03-04T18:06:30.103Z,2.83
2019-03-04T18:09:05.330Z,1.50
2019-03-04T18:11:38.509Z,4.73
2019-03-04T18:14:10.604Z,2.40
2019-03-04T18:16:43.092Z,2.00
2019-03-04T18:19:17.184Z,4.30
2019-03-04T18:21:49.246Z,1.27
2019-03-04T18:24:23.767Z,1.30
2019-03-04T18:27:05.197Z,1.90
2019-03-04T18:30:01.102Z,3.57
2019-03-04T18:33:26.654Z,8.03
2019-03-04T18:36:20.551Z,2.00
2019-03-04T18:39:39.590Z,1.20
2019-03-04T18:42:49.013Z,2.87
2019-03-04T18:45:51.293Z,3.17
2019-03-04T18:48:57.288Z,1.90
2019-03-04T18:51:31.005Z,4.23
2019-03-04T18:54:07.864Z,1.53
2019-03-04T18:56:40.645Z,5.00
2019-03-04T18:59:13.681Z,6.57
2019-03-04T19:01:49.050Z,7.97
2019-03-04T19:04:25.056Z,5.40
2019-03-04T19:06:56.541Z,2.60
2019-03-04T19:09:28.605Z,4.57
2019-03-04T19:12:03.182Z,3.13
2019-03-04T19:14:36.237Z,1.10
2019-03-04T19:17:08.051Z,2.60
2019-03-04T19:19:41.640Z,1.50
2019-03-04T19:22:13.518Z,1.33
2019-03-04T19:24:46.754Z,2.37
2019-03-04T19:27:20.402Z,2.33
2019-03-04T19:29:52.077Z,1.77
2019-03-04T19:32:25.633Z,3.83
2019-03-04T19:34:58.903Z,1.10
2019-03-04T19:37:31.779Z,2.43
2019-03-04T19:40:06.262Z,1.57
2019-03-04T19:42:40.185Z,2.10
2019-03-04T19:45:14.849Z,1.67
2019-03-04T19:47:46.598Z,2.67
2019-03-04T19:50:19.961Z,3.90
2019-03-04T19:52:51.869Z,2.83
2019-03-04T19:55:25.918Z,4.10
2019-03-04T19:57:58.928Z,3.13
2019-03-04T20:00:32.861Z,4.50
2019-03-04T20:03:17.008Z,5.30
2019-03-04T20:05:49.937Z,3.93
2019-03-04T20:08:23.245Z,8.43
2019-03-04T20:10:54.776Z,4.83
2019-03-04T20:13:26.759Z,3.27
2019-03-04T20:15:59.992Z,1.70
2019-03-04T20:18:32.029Z,1.50
2019-03-04T20:21:04.877Z,1.33
2019-03-04T20:23:36.083Z,2.43
2019-03-04T20:26:08.015Z,2.20
2019-03-04T20:28:41.023Z,5.60
2019-03-04T20:31:14.084Z,2.43
2019-03-04T20:33:47.055Z,1.60
2019-03-04T20:36:19.945Z,4.20
2019-03-04T20:38:52.953Z,4.53
2019-03-04T20:41:26.176Z,1.67
2019-03-04T20:43:59.843Z,5.50
2019-03-04T20:46:32.060Z,4.77
2019-03-04T20:49:04.920Z,1.67
2019-03-04T20:51:38.246Z,2.73
2019-03-04T20:54:11.205Z,4.00
2019-03-04T20:56:43.165Z,2.50
2019-03-04T20:59:16.053Z,3.77
2019-03-04T21:01:51.608Z,6.30
2019-03-04T21:04:25.037Z,3.63
2019-03-04T21:07:00.621Z,2.60
2019-03-04T21:09:32.153Z,4.17
2019-03-04T21:12:05.623Z,3.33
2019-03-04T21:14:38.277Z,6.67
2019-03-04T21:17:12.302Z,4.90
2019-03-04T21:19:43.557Z,7.30
2019-03-04T21:22:16.140Z,5.50
2019-03-04T21:24:50.092Z,8.23
2019-03-04T21:27:23.152Z,4.90
2019-03-04T21:30:29.673Z,5.70
2019-03-04T21:33:12.479Z,5.23
2019-03-04T21:36:23.222Z,4.33
2019-03-04T21:38:58.237Z,8.27
2019-03-04T21:42:07.734Z,4.50
2019-03-04T21:45:10.428Z,5.30
2019-03-04T21:47:46.486Z,3.27
2019-03-04T21:50:24.158Z,2.97
2019-03-04T21:53:06.656Z,3.63
2019-03-04T21:55:46.992Z,2.30
2019-03-04T21:58:20.648Z,1.33
2019-03-04T22:01:00.005Z,2.97
2019-03-04T22:03:35.013Z,1.80
2019-03-04T22:06:07.654Z,5.53
2019-03-04T22:08:41.820Z,2.97
2019-03-04T22:11:13.608Z,3.27
2019-03-04T22:13:45.729Z,4.03
2019-03-04T22:16:17.731Z,1.90
2019-03-04T22:18:53.126Z,3.63
2019-03-04T22:21:24.539Z,2.20
2019-03-04T22:24:00.963Z,1.90
2019-03-04T22:26:34.419Z,1.30
2019-03-04T22:29:07.408Z,1.00
2019-03-04T22:31:41.431Z,1.40
2019-03-04T22:34:17.074Z,4.40
2019-03-04T22:36:51.166Z,2.00
2019-03-04T22:39:24.823Z,3.37
2019-03-04T22:41:58.195Z,1.87
2019-03-04T22:44:29.763Z,2.90
2019-03-04T22:47:02.708Z,1.93
2019-03-04T22:53:11.946Z,2.43
2019-03-04T22:55:43.291Z,1.53
2019-03-04T22:58:28.260Z,2.13
2019-03-04T23:01:41.329Z,1.67
2019-03-04T23:04:37.179Z,4.37
2019-03-04T23:07:22.426Z,2.13
2019-03-04T23:10:17.264Z,4.13
2019-03-04T23:12:53.926Z,4.00
2019-03-04T23:15:25.951Z,5.80
2019-03-04T23:17:58.743Z,3.37
2019-03-04T23:20:31.768Z,1.90
2019-03-04T23:23:04.669Z,0.90
2019-03-04T23:25:37.994Z,0.80
2019-03-04T23:28:11.845Z,1.90
2019-03-04T23:30:43.425Z,1.00
2019-03-04T23:33:15.074Z,0.90
2019-03-04T23:35:47.263Z,1.70
2019-03-04T23:38:19.891Z,3.50
2019-03-04T23:40:52.844Z,1.03
2019-03-04T23:43:24.825Z,0.97
2019-03-04T23:45:56.426Z,0.97
2019-03-04T23:48:29.865Z,1.60
2019-03-04T23:51:02.720Z,5.40
2019-03-04T23:53:34.846Z,1.10
2019-03-04T23:56:07.737Z,3.00
2019-03-04T23:58:40.010Z,2.47
